createdAt,value
2019-01-28T00:00:45.798Z,3.48
2019-01-28T00:01:45.714Z,3.45
2019-01-28T00:02:45.509Z,3.46
2019-01-28T00:03:45.414Z,3.45
2019-01-28T00:04:45.814Z,3.42
2019-01-28T00:05:46.153Z,3.42
2019-01-28T00:06:45.545Z,3.41
2019-01-28T00:07:45.538Z,3.41
2019-01-28T00:08:45.648Z,3.44
2019-01-28T00:09:45.657Z,3.42
2019-01-28T00:10:45.555Z,3.44
2019-01-28T00:11:45.413Z,3.42
2019-01-28T00:12:45.547Z,3.44
2019-01-28T00:13:45.606Z,3.46
2019-01-28T00:14:45.557Z,3.42
2019-01-28T00:15:45.556Z,3.44
2019-01-28T00:16:45.415Z,3.45
2019-01-28T00:17:47.163Z,3.44
2019-01-28T00:18:45.547Z,3.46
2019-01-28T00:19:45.629Z,3.46
2019-01-28T00:20:45.508Z,3.46
2019-01-28T00:21:47.246Z,3.44
2019-01-28T00:22:45.437Z,3.44
2019-01-28T00:23:47.288Z,3.46
2019-01-28T00:24:45.472Z,3.45
2019-01-28T00:25:45.474Z,3.44
2019-01-28T00:26:45.670Z,3.44
2019-01-28T00:27:45.452Z,3.46
2019-01-28T00:28:45.211Z,3.44
2019-01-28T00:29:45.519Z,3.44
2019-01-28T00:30:45.636Z,3.39
2019-01-28T00:31:45.501Z,3.41
2019-01-28T00:32:45.820Z,3.39
2019-01-28T00:33:45.425Z,3.38
2019-01-28T00:34:45.571Z,3.38
2019-01-28T00:35:45.390Z,3.39
2019-01-28T00:36:45.606Z,3.37
2019-01-28T00:37:45.649Z,3.34
2019-01-28T00:38:45.472Z,3.31
2019-01-28T00:39:45.650Z,3.32
2019-01-28T00:40:45.684Z,3.34
2019-01-28T00:41:45.367Z,3.32
2019-01-28T00:42:45.647Z,3.31
2019-01-28T00:43:45.466Z,3.31
2019-01-28T00:44:45.391Z,3.31
2019-01-28T00:45:45.569Z,3.31
2019-01-28T00:46:45.342Z,3.31
2019-01-28T00:47:45.495Z,3.29
2019-01-28T00:48:45.436Z,3.31
2019-01-28T00:49:45.727Z,3.27
2019-01-28T00:50:45.465Z,3.27
2019-01-28T00:51:45.654Z,3.29
2019-01-28T00:52:45.421Z,3.28
2019-01-28T00:53:45.707Z,3.28
2019-01-28T00:54:45.464Z,3.29
2019-01-28T00:55:47.157Z,3.28
2019-01-28T00:56:45.372Z,3.28
2019-01-28T00:57:45.466Z,3.28
2019-01-28T00:58:45.590Z,3.29
2019-01-28T00:59:46.108Z,3.28
2019-01-28T01:00:45.346Z,3.29
2019-01-28T01:01:45.604Z,3.29
2019-01-28T01:02:45.412Z,3.29
2019-01-28T01:03:45.360Z,3.29
2019-01-28T01:04:45.362Z,3.27
2019-01-28T01:05:45.426Z,3.31
2019-01-28T01:06:45.442Z,3.27
2019-01-28T01:07:45.362Z,3.25
2019-01-28T01:08:45.761Z,3.31
2019-01-28T01:09:45.454Z,3.27
2019-01-28T01:10:45.350Z,3.24
2019-01-28T01:11:45.471Z,3.28
2019-01-28T01:12:45.396Z,3.25
2019-01-28T01:13:45.434Z,3.28
2019-01-28T01:14:45.382Z,3.27
2019-01-28T01:15:45.372Z,3.27
2019-01-28T01:16:45.386Z,3.27
2019-01-28T01:17:45.343Z,3.29
2019-01-28T01:18:45.456Z,3.31
2019-01-28T01:19:45.358Z,3.34
2019-01-28T01:20:45.350Z,3.32
2019-01-28T01:21:45.346Z,3.35
2019-01-28T01:22:45.461Z,3.35
2019-01-28T01:23:45.539Z,3.35
2019-01-28T01:24:45.430Z,3.37
2019-01-28T01:25:45.653Z,3.37
2019-01-28T01:26:47.122Z,3.34
2019-01-28T01:27:45.300Z,3.35
2019-01-28T01:28:47.108Z,3.35
2019-01-28T01:29:45.580Z,3.35
2019-01-28T01:30:45.561Z,3.37
2019-01-28T01:31:45.697Z,3.39
2019-01-28T01:32:45.422Z,3.41
2019-01-28T01:33:45.262Z,3.38
2019-01-28T01:34:45.257Z,3.37
2019-01-28T01:35:45.333Z,3.37
2019-01-28T01:36:45.568Z,3.35
2019-01-28T01:37:45.304Z,3.37
2019-01-28T01:38:45.299Z,3.35
2019-01-28T01:39:45.370Z,3.34
2019-01-28T01:40:45.780Z,3.38
2019-01-28T01:41:45.596Z,3.37
2019-01-28T01:42:45.491Z,3.34
2019-01-28T01:43:45.355Z,3.34
2019-01-28T01:44:45.417Z,3.37
2019-01-28T01:45:45.442Z,3.38
2019-01-28T01:46:45.253Z,3.37
2019-01-28T01:47:45.411Z,3.37
2019-01-28T01:48:45.360Z,3.37
2019-01-28T01:49:45.274Z,3.37
2019-01-28T01:50:46.273Z,3.37
2019-01-28T01:51:45.553Z,3.37
2019-01-28T01:52:45.374Z,3.38
2019-01-28T01:53:45.405Z,3.37
2019-01-28T01:54:45.566Z,3.37
2019-01-28T01:55:45.560Z,3.37
2019-01-28T01:56:47.069Z,3.37
2019-01-28T01:57:45.314Z,3.35
2019-01-28T01:58:45.353Z,3.38
2019-01-28T01:59:45.287Z,3.35
2019-01-28T02:00:45.694Z,3.37
2019-01-28T02:01:45.247Z,3.37
2019-01-28T02:02:45.506Z,3.35
2019-01-28T02:03:45.291Z,3.35
2019-01-28T02:04:45.450Z,3.38
2019-01-28T02:05:45.653Z,3.38
2019-01-28T02:06:45.855Z,3.37
2019-01-28T02:07:45.294Z,3.35
2019-01-28T02:08:45.204Z,3.35
2019-01-28T02:09:45.390Z,3.35
2019-01-28T02:10:45.410Z,3.34
2019-01-28T02:11:47.119Z,3.35
2019-01-28T02:12:45.586Z,3.35
2019-01-28T02:13:45.504Z,3.35
2019-01-28T02:14:47.038Z,3.37
2019-01-28T02:15:45.505Z,3.34
2019-01-28T02:16:45.202Z,3.38
2019-01-28T02:17:45.532Z,3.37
2019-01-28T02:18:45.209Z,3.35
2019-01-28T02:19:45.682Z,3.34
2019-01-28T02:20:45.407Z,3.34
2019-01-28T02:21:45.394Z,3.32
2019-01-28T02:22:45.649Z,3.32
2019-01-28T02:23:45.654Z,3.32
2019-01-28T02:24:45.771Z,3.32
2019-01-28T02:25:45.412Z,3.34
2019-01-28T02:26:45.336Z,3.37
2019-01-28T02:27:45.691Z,3.32
2019-01-28T02:28:45.212Z,3.37
2019-01-28T02:34:45.326Z,3.34
2019-01-28T02:35:45.311Z,3.32
2019-01-28T02:36:45.038Z,3.32
2019-01-28T02:37:44.971Z,3.29
2019-01-28T02:38:45.098Z,3.29
2019-01-28T02:39:45.535Z,3.29
2019-01-28T02:40:44.952Z,3.31
2019-01-28T02:41:45.783Z,3.28
2019-01-28T02:42:44.972Z,3.28
2019-01-28T02:43:44.992Z,3.29
2019-01-28T02:44:45.076Z,3.32
2019-01-28T02:45:45.031Z,3.31
2019-01-28T02:46:45.037Z,3.29
2019-01-28T02:47:45.019Z,3.29
2019-01-28T02:48:45.001Z,3.32
2019-01-28T02:49:45.515Z,3.29
2019-01-28T02:50:45.041Z,3.31
2019-01-28T02:51:45.134Z,3.31
2019-01-28T02:52:44.958Z,3.29
2019-01-28T02:53:45.021Z,3.31
2019-01-28T02:54:45.004Z,3.29
2019-01-28T02:55:45.022Z,3.31
2019-01-28T02:56:45.002Z,3.28
2019-01-28T02:57:45.044Z,3.31
2019-01-28T02:58:44.983Z,3.28
2019-01-28T02:59:45.014Z,3.27
2019-01-28T03:00:45.083Z,3.29
2019-01-28T03:01:44.952Z,3.29
2019-01-28T03:02:44.985Z,3.29
2019-01-28T03:03:44.924Z,3.28
2019-01-28T03:04:45.203Z,3.31
2019-01-28T03:05:44.903Z,3.28
2019-01-28T03:06:44.994Z,3.28
2019-01-28T03:07:46.584Z,3.25
2019-01-28T03:08:44.977Z,3.25
2019-01-28T03:09:45.028Z,3.24
2019-01-28T03:10:44.988Z,3.2
2019-01-28T03:11:44.875Z,3.22
2019-01-28T03:12:45.152Z,3.22
2019-01-28T03:13:44.949Z,3.24
2019-01-28T03:14:45.179Z,3.2
2019-01-28T03:15:44.922Z,3.22
2019-01-28T03:16:45.500Z,3.2
2019-01-28T03:17:45.742Z,3.21
2019-01-28T03:18:44.902Z,3.24
2019-01-28T03:19:45.132Z,3.22
2019-01-28T03:20:46.065Z,3.22
2019-01-28T03:21:45.291Z,3.21
2019-01-28T03:22:45.470Z,3.2
2019-01-28T03:23:44.911Z,3.2
2019-01-28T03:24:44.998Z,3.17
2019-01-28T03:25:44.971Z,3.18
2019-01-28T03:26:45.141Z,3.17
2019-01-28T03:27:45.282Z,3.17
2019-01-28T03:28:45.081Z,3.17
2019-01-28T03:29:45.264Z,3.14
2019-01-28T03:30:44.862Z,3.12
2019-01-28T03:31:44.953Z,3.12
2019-01-28T03:32:44.933Z,3.11
2019-01-28T03:33:45.189Z,3.12
2019-01-28T03:34:45.121Z,3.14
2019-01-28T03:35:44.875Z,3.12
2019-01-28T03:36:45.125Z,3.15
2019-01-28T03:37:44.862Z,3.14
2019-01-28T03:38:44.968Z,3.14
2019-01-28T03:39:45.014Z,3.17
2019-01-28T03:40:44.853Z,3.12
2019-01-28T03:41:45.069Z,3.14
2019-01-28T03:42:45.377Z,3.15
2019-01-28T03:43:45.184Z,3.14
2019-01-28T03:44:45.268Z,3.15
2019-01-28T03:45:45.074Z,3.12
2019-01-28T03:46:45.185Z,3.12
2019-01-28T03:47:45.120Z,3.11
2019-01-28T03:48:44.845Z,3.1
2019-01-28T03:49:44.967Z,3.11
2019-01-28T03:50:45.138Z,3.11
2019-01-28T03:51:44.963Z,3.07
2019-01-28T03:52:45.136Z,3.06
2019-01-28T03:53:44.868Z,3.06
2019-01-28T03:54:45.037Z,3.03
2019-01-28T03:55:45.356Z,3.03
2019-01-28T03:56:45.037Z,3.03
2019-01-28T03:57:45.462Z,3
2019-01-28T03:58:45.032Z,2.97
2019-01-28T03:59:45.179Z,2.99
2019-01-28T04:00:44.793Z,2.92
2019-01-28T04:01:45.079Z,2.93
2019-01-28T04:02:44.913Z,2.92
2019-01-28T04:03:45.425Z,2.96
2019-01-28T04:04:45.127Z,2.92
2019-01-28T04:05:45.097Z,2.92
2019-01-28T04:06:45.116Z,2.9
2019-01-28T04:07:44.944Z,2.9
2019-01-28T04:08:45.939Z,2.89
2019-01-28T04:09:45.042Z,2.89
2019-01-28T04:10:44.893Z,2.92
2019-01-28T04:11:45.043Z,2.89
2019-01-28T04:12:46.599Z,2.9
2019-01-28T04:13:45.056Z,2.86
2019-01-28T04:14:45.288Z,2.87
2019-01-28T04:15:44.969Z,2.86
2019-01-28T04:16:44.816Z,2.83
2019-01-28T04:17:44.787Z,2.82
2019-01-28T04:18:46.612Z,2.8
2019-01-28T04:19:45.129Z,2.84
2019-01-28T04:20:44.907Z,2.8
2019-01-28T04:21:44.788Z,2.8
2019-01-28T04:22:45.019Z,2.79
2019-01-28T04:23:44.855Z,2.79
2019-01-28T04:24:44.783Z,2.77
2019-01-28T04:25:44.832Z,2.77
2019-01-28T04:26:44.865Z,2.77
2019-01-28T04:27:44.797Z,2.77
2019-01-28T04:28:44.782Z,2.79
2019-01-28T04:29:44.926Z,2.76
2019-01-28T04:30:45.074Z,2.77
2019-01-28T04:31:44.844Z,2.79
2019-01-28T04:32:44.820Z,2.77
2019-01-28T04:33:44.806Z,2.76
2019-01-28T04:34:44.785Z,2.75
2019-01-28T04:35:45.528Z,2.75
2019-01-28T04:36:45.115Z,2.77
2019-01-28T04:37:44.764Z,2.76
2019-01-28T04:38:44.879Z,2.76
2019-01-28T04:39:44.785Z,2.75
2019-01-28T04:40:45.371Z,2.72
2019-01-28T04:41:44.748Z,2.72
2019-01-28T04:42:44.996Z,2.73
2019-01-28T04:43:45.067Z,2.71
2019-01-28T04:44:45.083Z,2.71
2019-01-28T04:45:45.936Z,2.71
2019-01-28T04:46:45.082Z,2.69
2019-01-28T04:47:44.987Z,2.68
2019-01-28T04:48:58.717Z,2.68
2019-01-28T04:49:45.002Z,2.66
2019-01-28T04:50:45.015Z,2.68
2019-01-28T04:51:44.992Z,2.62
2019-01-28T04:52:44.754Z,2.62
2019-01-28T04:53:44.719Z,2.66
2019-01-28T04:54:44.896Z,2.66
2019-01-28T04:55:44.843Z,2.62
2019-01-28T04:56:44.819Z,2.64
2019-01-28T04:57:44.773Z,2.59
2019-01-28T04:58:45.367Z,2.61
2019-01-28T04:59:44.986Z,2.58
2019-01-28T05:00:44.694Z,2.61
2019-01-28T05:01:44.980Z,2.65
2019-01-28T05:02:45.004Z,2.58
2019-01-28T05:03:44.717Z,2.61
2019-01-28T05:04:44.798Z,2.61
2019-01-28T05:05:44.820Z,2.62
2019-01-28T05:06:45.166Z,2.58
2019-01-28T05:07:44.724Z,2.61
2019-01-28T05:08:45.134Z,2.62
2019-01-28T05:09:44.899Z,2.65
2019-01-28T05:10:44.724Z,2.61
2019-01-28T05:11:44.731Z,2.65
2019-01-28T05:12:45.078Z,2.58
2019-01-28T05:13:44.973Z,2.61
2019-01-28T05:14:45.083Z,2.61
2019-01-28T05:15:45.708Z,2.61
2019-01-28T05:16:44.817Z,2.59
2019-01-28T05:17:45.403Z,2.58
2019-01-28T05:18:45.100Z,2.61
2019-01-28T05:19:44.722Z,2.61
2019-01-28T05:20:44.786Z,2.58
2019-01-28T05:21:44.724Z,2.58
2019-01-28T05:22:44.767Z,2.58
2019-01-28T05:23:44.936Z,2.58
2019-01-28T05:24:44.710Z,2.56
2019-01-28T05:25:44.689Z,2.59
2019-01-28T05:26:44.800Z,2.55
2019-01-28T05:27:44.795Z,2.56
2019-01-28T05:28:44.733Z,2.55
2019-01-28T05:29:44.867Z,2.52
2019-01-28T05:30:45.099Z,2.55
2019-01-28T05:31:45.002Z,2.55
2019-01-28T05:32:44.735Z,2.54
2019-01-28T05:33:44.739Z,2.54
2019-01-28T05:34:45.036Z,2.54
2019-01-28T05:35:44.765Z,2.54
2019-01-28T05:36:44.712Z,2.54
2019-01-28T05:37:44.726Z,2.52
2019-01-28T05:38:44.932Z,2.54
2019-01-28T05:39:44.970Z,2.54
2019-01-28T05:40:44.699Z,2.52
2019-01-28T05:41:44.745Z,2.52
2019-01-28T05:42:44.630Z,2.55
2019-01-28T05:43:44.658Z,2.54
2019-01-28T05:44:44.974Z,2.54
2019-01-28T05:45:44.756Z,2.52
2019-01-28T05:46:46.506Z,2.52
2019-01-28T05:47:44.918Z,2.51
2019-01-28T05:48:44.710Z,2.52
2019-01-28T05:49:44.860Z,2.54
2019-01-28T05:50:45.273Z,2.54
2019-01-28T05:51:46.520Z,2.52
2019-01-28T05:52:45.052Z,2.52
2019-01-28T05:53:44.932Z,2.49
2019-01-28T05:54:44.943Z,2.49
2019-01-28T05:55:45.061Z,2.52
2019-01-28T05:56:44.631Z,2.55
2019-01-28T05:57:44.658Z,2.54
2019-01-28T05:58:44.757Z,2.51
2019-01-28T05:59:44.617Z,2.54
2019-01-28T06:00:45.081Z,2.55
2019-01-28T06:01:44.712Z,2.54
2019-01-28T06:02:44.777Z,2.55
2019-01-28T06:03:44.617Z,2.56
2019-01-28T06:04:44.674Z,2.56
2019-01-28T06:05:44.643Z,2.55
2019-01-28T06:06:44.670Z,2.54
2019-01-28T06:07:44.633Z,2.55
2019-01-28T06:08:44.650Z,2.55
2019-01-28T06:09:44.674Z,2.52
2019-01-28T06:10:44.685Z,2.56
2019-01-28T06:11:44.620Z,2.55
2019-01-28T06:12:44.704Z,2.55
2019-01-28T06:13:44.627Z,2.56
2019-01-28T06:14:44.602Z,2.56
2019-01-28T06:15:44.600Z,2.56
2019-01-28T06:16:44.603Z,2.55
2019-01-28T06:17:44.611Z,2.52
2019-01-28T06:18:44.594Z,2.52
2019-01-28T06:19:44.613Z,2.54
2019-01-28T06:20:44.589Z,2.52
2019-01-28T06:21:45.054Z,2.54
2019-01-28T06:22:44.632Z,2.56
2019-01-28T06:23:44.637Z,2.58
2019-01-28T06:24:44.781Z,2.54
2019-01-28T06:25:44.706Z,2.55
2019-01-28T06:26:44.879Z,2.56
2019-01-28T06:27:44.621Z,2.51
2019-01-28T06:28:44.587Z,2.55
2019-01-28T06:29:46.408Z,2.52
2019-01-28T06:30:44.774Z,2.54
2019-01-28T06:31:44.617Z,2.58
2019-01-28T06:32:44.687Z,2.56
2019-01-28T06:33:44.906Z,2.56
2019-01-28T06:34:44.905Z,2.59
2019-01-28T06:35:45.545Z,2.59
2019-01-28T06:36:45.141Z,2.59
2019-01-28T06:37:44.591Z,2.61
2019-01-28T06:38:44.601Z,2.61
2019-01-28T06:39:44.575Z,2.61
2019-01-28T06:40:45.163Z,2.64
2019-01-28T06:41:45.270Z,2.59
2019-01-28T06:42:44.555Z,2.58
2019-01-28T06:43:44.517Z,2.61
2019-01-28T06:44:44.701Z,2.58
2019-01-28T06:45:44.578Z,2.56
2019-01-28T06:46:44.709Z,2.59
2019-01-28T06:47:47.374Z,2.59
2019-01-28T06:48:45.212Z,2.58
2019-01-28T06:49:44.673Z,2.56
2019-01-28T06:50:44.555Z,2.58
2019-01-28T06:51:44.586Z,2.58
2019-01-28T06:52:44.646Z,2.61
2019-01-28T06:53:45.243Z,2.61
2019-01-28T06:54:44.548Z,2.59
2019-01-28T06:55:44.661Z,2.64
2019-01-28T06:56:45.058Z,2.59
2019-01-28T06:57:44.547Z,2.59
2019-01-28T06:58:44.777Z,2.59
2019-01-28T06:59:44.771Z,2.61
2019-01-28T07:00:44.775Z,2.59
2019-01-28T07:01:44.605Z,2.58
2019-01-28T07:02:44.990Z,2.61
2019-01-28T07:03:44.582Z,2.62
2019-01-28T07:04:44.799Z,2.62
2019-01-28T07:05:44.673Z,2.62
2019-01-28T07:06:44.714Z,2.64
2019-01-28T07:07:44.577Z,2.62
2019-01-28T07:08:44.640Z,2.59
2019-01-28T07:09:44.615Z,2.62
2019-01-28T07:10:44.566Z,2.61
2019-01-28T07:11:44.509Z,2.61
2019-01-28T07:12:44.733Z,2.61
2019-01-28T07:13:44.536Z,2.61
2019-01-28T07:14:44.596Z,2.61
2019-01-28T07:15:46.322Z,2.59
2019-01-28T07:16:44.783Z,2.62
2019-01-28T07:17:44.657Z,2.64
2019-01-28T07:18:44.581Z,2.61
2019-01-28T07:19:44.538Z,2.62
2019-01-28T07:20:44.544Z,2.61
2019-01-28T07:21:44.492Z,2.59
2019-01-28T07:22:44.483Z,2.59
2019-01-28T07:23:44.588Z,2.58
2019-01-28T07:24:44.752Z,2.59
2019-01-28T07:25:44.647Z,2.59
2019-01-28T07:26:44.512Z,2.61
2019-01-28T07:27:44.628Z,2.58
2019-01-28T07:28:44.491Z,2.58
2019-01-28T07:29:44.463Z,2.56
2019-01-28T07:30:45.075Z,2.56
2019-01-28T07:31:44.598Z,2.58
2019-01-28T07:32:44.525Z,2.55
2019-01-28T07:33:44.494Z,2.55
2019-01-28T07:34:44.731Z,2.58
2019-01-28T07:35:45.209Z,2.58
2019-01-28T07:36:44.482Z,2.59
2019-01-28T07:37:44.596Z,2.58
2019-01-28T07:38:44.729Z,2.54
2019-01-28T07:39:44.526Z,2.55
2019-01-28T07:40:44.485Z,2.56
2019-01-28T07:41:44.551Z,2.55
2019-01-28T07:42:44.530Z,2.54
2019-01-28T07:43:44.549Z,2.54
2019-01-28T07:44:44.524Z,2.54
2019-01-28T07:45:45.961Z,2.51
2019-01-28T07:46:44.579Z,2.51
2019-01-28T07:47:44.487Z,2.51
2019-01-28T07:48:44.546Z,2.51
2019-01-28T07:49:44.495Z,2.49
2019-01-28T07:50:44.479Z,2.49
2019-01-28T07:51:44.494Z,2.48
2019-01-28T07:52:44.450Z,2.49
2019-01-28T07:53:44.518Z,2.47
2019-01-28T07:54:44.559Z,2.49
2019-01-28T07:55:44.778Z,2.48
2019-01-28T07:56:44.448Z,2.49
2019-01-28T07:57:44.483Z,2.47
2019-01-28T07:58:44.557Z,2.47
2019-01-28T07:59:44.438Z,2.48
2019-01-28T08:00:44.977Z,2.48
2019-01-28T08:01:44.681Z,2.47
2019-01-28T08:02:45.362Z,2.48
2019-01-28T08:03:44.447Z,2.48
2019-01-28T08:04:45.015Z,2.48
2019-01-28T08:05:44.478Z,2.49
2019-01-28T08:06:45.020Z,2.52
2019-01-28T08:07:44.577Z,2.51
2019-01-28T08:08:44.657Z,2.51
2019-01-28T08:09:44.746Z,2.52
2019-01-28T08:10:44.486Z,2.51
2019-01-28T08:11:44.763Z,2.52
2019-01-28T08:12:45.169Z,2.56
2019-01-28T08:13:44.406Z,2.54
2019-01-28T08:14:44.671Z,2.55
2019-01-28T08:15:44.451Z,2.55
2019-01-28T08:16:44.889Z,2.55
2019-01-28T08:17:44.465Z,2.56
2019-01-28T08:18:44.564Z,2.56
2019-01-28T08:19:44.558Z,2.55
2019-01-28T08:20:45.112Z,2.56
2019-01-28T08:21:44.828Z,2.58
2019-01-28T08:22:44.496Z,2.58
2019-01-28T08:23:44.400Z,2.61
2019-01-28T08:24:44.439Z,2.59
2019-01-28T08:25:45.302Z,2.59
2019-01-28T08:26:44.776Z,2.61
2019-01-28T08:27:44.547Z,2.59
2019-01-28T08:28:44.419Z,2.59
2019-01-28T08:29:44.375Z,2.59
2019-01-28T08:30:44.433Z,2.59
2019-01-28T08:31:44.462Z,2.61
2019-01-28T08:32:44.697Z,2.61
2019-01-28T08:33:44.391Z,2.61
2019-01-28T08:34:44.720Z,2.66
2019-01-28T08:35:44.788Z,2.64
2019-01-28T08:36:44.530Z,2.61
2019-01-28T08:37:44.428Z,2.62
2019-01-28T08:38:44.436Z,2.65
2019-01-28T08:39:44.857Z,2.66
2019-01-28T08:40:44.692Z,2.68
2019-01-28T08:41:44.728Z,2.68
2019-01-28T08:42:44.516Z,2.66
2019-01-28T08:43:45.571Z,2.65
2019-01-28T08:44:46.188Z,2.65
2019-01-28T08:45:44.485Z,2.66
2019-01-28T08:46:44.437Z,2.69
2019-01-28T08:47:44.379Z,2.68
2019-01-28T08:48:45.285Z,2.68
2019-01-28T08:49:44.662Z,2.72
2019-01-28T08:50:44.354Z,2.71
2019-01-28T08:51:44.815Z,2.69
2019-01-28T08:52:46.193Z,2.72
2019-01-28T08:53:44.427Z,2.72
2019-01-28T08:54:44.363Z,2.72
2019-01-28T08:55:45.072Z,2.76
2019-01-28T08:56:45.283Z,2.76
2019-01-28T08:57:44.639Z,2.75
2019-01-28T08:58:44.654Z,2.77
2019-01-28T08:59:44.742Z,2.79
2019-01-28T09:00:44.495Z,2.79
2019-01-28T09:01:45.076Z,2.77
2019-01-28T09:02:44.900Z,2.8
2019-01-28T09:03:45.085Z,2.82
2019-01-28T09:04:44.598Z,2.82
2019-01-28T09:05:44.379Z,2.8
2019-01-28T09:06:44.457Z,2.82
2019-01-28T09:07:44.359Z,2.8
2019-01-28T09:08:44.435Z,2.83
2019-01-28T09:09:44.449Z,2.84
2019-01-28T09:10:44.628Z,2.86
2019-01-28T09:11:44.349Z,2.86
2019-01-28T09:12:44.417Z,2.86
2019-01-28T09:13:44.326Z,2.86
2019-01-28T09:14:44.383Z,2.89
2019-01-28T09:15:44.781Z,2.9
2019-01-28T09:16:44.438Z,2.92
2019-01-28T09:17:45.220Z,2.89
2019-01-28T09:18:44.580Z,2.92
2019-01-28T09:19:44.592Z,2.93
2019-01-28T09:20:44.406Z,2.93
2019-01-28T09:21:44.494Z,2.94
2019-01-28T09:22:44.348Z,2.96
2019-01-28T09:23:44.501Z,2.99
2019-01-28T09:24:44.467Z,2.97
2019-01-28T09:25:44.421Z,3
2019-01-28T09:26:44.522Z,3
2019-01-28T09:27:44.305Z,3.03
2019-01-28T09:28:44.489Z,3.03
2019-01-28T09:29:44.326Z,3.03
2019-01-28T09:30:46.402Z,3
2019-01-28T09:31:44.429Z,3.01
2019-01-28T09:32:44.409Z,3.04
2019-01-28T09:33:44.282Z,3.03
2019-01-28T09:34:44.430Z,3.07
2019-01-28T09:35:44.450Z,3.06
2019-01-28T09:36:44.397Z,3.06
2019-01-28T09:37:44.520Z,3.06
2019-01-28T09:38:44.392Z,3.06
2019-01-28T09:39:44.515Z,3.06
2019-01-28T09:40:44.528Z,3.07
2019-01-28T09:41:44.529Z,3.04
2019-01-28T09:42:44.408Z,3.04
2019-01-28T09:43:44.539Z,3.07
2019-01-28T09:44:44.318Z,3.06
2019-01-28T09:45:47.722Z,3.08
2019-01-28T09:46:44.560Z,3.03
2019-01-28T09:47:46.122Z,3.03
2019-01-28T09:48:44.577Z,3.06
2019-01-28T09:49:44.586Z,3.04
2019-01-28T09:50:44.345Z,3.04
2019-01-28T09:51:44.460Z,3.03
2019-01-28T09:52:44.269Z,3.03
2019-01-28T09:53:44.375Z,3.04
2019-01-28T09:54:44.428Z,3.03
2019-01-28T09:55:44.341Z,3.06
2019-01-28T09:56:44.330Z,3.07
2019-01-28T09:57:44.281Z,3.06
2019-01-28T09:58:44.478Z,3.04
2019-01-28T09:59:44.397Z,3.03
2019-01-28T10:00:44.271Z,3.07
2019-01-28T10:01:44.326Z,3.06
2019-01-28T10:02:44.468Z,3.08
2019-01-28T10:03:44.668Z,3.08
2019-01-28T10:04:44.375Z,3.07
2019-01-28T10:05:44.791Z,3.06
2019-01-28T10:06:44.600Z,3.08
2019-01-28T10:07:44.242Z,3.08
2019-01-28T10:08:44.361Z,3.07
2019-01-28T10:09:44.248Z,3.06
2019-01-28T10:10:44.243Z,3.06
2019-01-28T10:11:44.328Z,3.06
2019-01-28T10:12:44.234Z,3.04
2019-01-28T10:13:44.548Z,3.03
2019-01-28T10:14:44.434Z,3.06
2019-01-28T10:15:44.253Z,3.04
2019-01-28T10:16:44.267Z,3.06
2019-01-28T10:17:44.478Z,3.03
2019-01-28T10:18:44.576Z,3.04
2019-01-28T10:19:44.496Z,3.08
2019-01-28T10:20:45.060Z,3.11
2019-01-28T10:21:44.353Z,3.11
2019-01-28T10:22:44.608Z,3.11
2019-01-28T10:23:44.241Z,3.12
2019-01-28T10:24:44.251Z,3.12
2019-01-28T10:25:44.212Z,3.11
2019-01-28T10:26:44.224Z,3.08
2019-01-28T10:27:44.217Z,3.1
2019-01-28T10:28:44.248Z,3.08
2019-01-28T10:29:44.377Z,3.11
2019-01-28T10:30:44.222Z,3.11
2019-01-28T10:31:44.450Z,3.12
2019-01-28T10:32:44.330Z,3.11
2019-01-28T10:33:44.238Z,3.12
2019-01-28T10:34:44.303Z,3.14
2019-01-28T10:35:44.211Z,3.12
2019-01-28T10:36:44.223Z,3.11
2019-01-28T10:37:44.427Z,3.1
2019-01-28T10:38:44.274Z,3.07
2019-01-28T10:39:44.270Z,3.08
2019-01-28T10:40:44.503Z,3.07
2019-01-28T10:41:44.240Z,3.06
2019-01-28T10:42:44.232Z,3.1
2019-01-28T10:43:44.550Z,3.08
2019-01-28T10:44:44.707Z,3.12
2019-01-28T10:45:44.495Z,3.11
2019-01-28T10:46:44.508Z,3.12
2019-01-28T10:47:44.393Z,3.14
2019-01-28T10:48:49.984Z,3.12
2019-01-28T10:49:44.270Z,3.14
2019-01-28T10:50:44.575Z,3.08
2019-01-28T10:51:44.227Z,3.08
2019-01-28T10:52:44.611Z,3.08
2019-01-28T10:53:44.485Z,3.07
2019-01-28T10:54:44.417Z,3.08
2019-01-28T10:55:44.679Z,3.1
2019-01-28T10:56:44.515Z,3.08
2019-01-28T10:57:44.584Z,3.14
2019-01-28T10:58:44.468Z,3.12
2019-01-28T10:59:45.239Z,3.11
2019-01-28T11:00:44.345Z,3.1
2019-01-28T11:01:45.867Z,3.1
2019-01-28T11:02:44.218Z,3.1
2019-01-28T11:03:44.440Z,3.07
2019-01-28T11:04:44.939Z,3.08
2019-01-28T11:05:44.325Z,3.07
2019-01-28T11:06:44.191Z,3.06
2019-01-28T11:07:44.364Z,3.07
2019-01-28T11:08:54.088Z,3.07
2019-01-28T11:09:46.312Z,3.06
2019-01-28T11:10:45.427Z,3.01
2019-01-28T11:14:44.485Z,3.03
2019-01-28T11:15:44.825Z,3
2019-01-28T11:16:44.285Z,3
2019-01-28T11:17:44.961Z,3
2019-01-28T11:18:48.969Z,3
2019-01-28T11:19:45.862Z,3.01
2019-01-28T11:20:44.756Z,3.03
2019-01-28T11:21:44.520Z,3.01
2019-01-28T11:22:44.423Z,3.03
2019-01-28T11:23:48.301Z,3.01
2019-01-28T11:24:44.770Z,3.03
2019-01-28T11:25:44.245Z,3.03
2019-01-28T11:26:44.968Z,3.06
2019-01-28T11:27:45.663Z,3.04
2019-01-28T11:28:46.215Z,3.06
2019-01-28T11:29:44.695Z,3.07
2019-01-28T11:30:44.505Z,3.04
2019-01-28T11:31:47.342Z,3.06
2019-01-28T11:32:45.179Z,3.06
2019-01-28T11:33:45.542Z,3.07
2019-01-28T11:34:44.584Z,3.04
2019-01-28T11:35:45.416Z,3.06
2019-01-28T11:36:44.531Z,3.08
2019-01-28T11:37:44.399Z,3.08
2019-01-28T11:38:44.530Z,3.07
2019-01-28T11:39:45.321Z,3.06
2019-01-28T11:40:44.160Z,3.06
2019-01-28T11:41:44.784Z,3.06
2019-01-28T11:42:44.359Z,3.06
2019-01-28T11:43:44.410Z,3.06
2019-01-28T11:44:44.856Z,3.07
2019-01-28T11:45:46.065Z,3.06
2019-01-28T11:46:46.137Z,3.06
2019-01-28T11:47:44.483Z,3.04
2019-01-28T11:48:45.626Z,3.04
2019-01-28T11:49:45.180Z,3.04
2019-01-28T11:50:44.169Z,3.06
2019-01-28T11:51:44.119Z,3.06
2019-01-28T11:53:44.118Z,3.06
2019-01-28T11:54:44.531Z,3.04
2019-01-28T11:55:44.212Z,3.06
2019-01-28T11:56:44.224Z,3.04
2019-01-28T11:57:44.268Z,3.07
2019-01-28T11:58:44.175Z,3.07
2019-01-28T11:59:44.233Z,3.1
2019-01-28T12:00:44.055Z,3.08
2019-01-28T12:01:44.274Z,3.11
2019-01-28T12:02:44.395Z,3.1
2019-01-28T12:03:45.951Z,3.11
2019-01-28T12:04:45.560Z,3.11
2019-01-28T12:05:44.099Z,3.1
2019-01-28T12:06:45.484Z,3.11
2019-01-28T12:07:44.108Z,3.11
2019-01-28T12:08:44.062Z,3.1
2019-01-28T12:09:44.061Z,3.1
2019-01-28T12:10:44.077Z,3.1
2019-01-28T12:11:44.138Z,3.1
2019-01-28T12:12:44.117Z,3.11
2019-01-28T12:13:44.236Z,3.11
2019-01-28T12:14:44.074Z,3.11
2019-01-28T12:15:44.087Z,3.11
2019-01-28T12:16:44.087Z,3.1
2019-01-28T12:17:44.098Z,3.11
2019-01-28T12:18:44.197Z,3.12
2019-01-28T12:19:44.494Z,3.11
2019-01-28T12:20:53.976Z,3.08
2019-01-28T12:21:44.109Z,3.07
2019-01-28T12:22:44.313Z,3.08
2019-01-28T12:23:45.011Z,3.08
2019-01-28T12:24:44.078Z,3.12
2019-01-28T12:25:44.045Z,3.1
2019-01-28T12:26:44.230Z,3.12
2019-01-28T12:27:44.292Z,3.1
2019-01-28T12:28:44.160Z,3.1
2019-01-28T12:29:44.115Z,3.12
2019-01-28T12:30:44.172Z,3.1
2019-01-28T12:31:44.282Z,3.11
2019-01-28T12:32:44.393Z,3.1
2019-01-28T12:33:44.063Z,3.07
2019-01-28T12:34:44.059Z,3.08
2019-01-28T12:35:44.309Z,3.07
2019-01-28T12:36:44.042Z,3.07
2019-01-28T12:37:44.586Z,3.07
2019-01-28T12:38:44.121Z,3.07
2019-01-28T12:39:45.354Z,3.07
2019-01-28T12:40:44.043Z,3.06
2019-01-28T12:41:43.995Z,3.07
2019-01-28T12:42:44.039Z,3.08
2019-01-28T12:43:44.050Z,3.04
2019-01-28T12:44:44.706Z,3.07
2019-01-28T12:45:44.054Z,3.03
2019-01-28T12:46:44.034Z,3.01
2019-01-28T12:48:44.105Z,2.99
2019-01-28T12:49:44.933Z,3.01
2019-01-28T12:50:45.071Z,3
2019-01-28T12:51:44.098Z,2.99
2019-01-28T12:52:44.599Z,2.99
2019-01-28T12:53:44.880Z,2.99
2019-01-28T12:54:44.173Z,2.99
2019-01-28T12:55:47.263Z,2.97
2019-01-28T12:56:49.918Z,2.99
2019-01-28T12:57:43.983Z,2.99
2019-01-28T12:58:44.713Z,2.99
2019-01-28T12:59:43.972Z,3
2019-01-28T13:00:43.947Z,3.01
2019-01-28T13:01:48.783Z,3
2019-01-28T13:02:44.072Z,2.99
2019-01-28T13:03:44.546Z,2.99
2019-01-28T13:04:45.416Z,3
2019-01-28T13:05:52.417Z,3
2019-01-28T13:06:44.278Z,3.01
2019-01-28T13:07:44.101Z,3.03
2019-01-28T13:08:44.209Z,3.01
2019-01-28T13:09:44.263Z,3
2019-01-28T13:10:44.560Z,3.01
2019-01-28T13:11:44.239Z,3.01
2019-01-28T13:12:54.944Z,3.03
2019-01-28T13:13:45.313Z,3
2019-01-28T13:14:44.059Z,3.04
2019-01-28T13:15:44.258Z,3
2019-01-28T13:16:47.593Z,3.03
2019-01-28T13:17:43.965Z,3.03
2019-01-28T13:18:44.021Z,3.04
2019-01-28T13:19:44.058Z,3.06
2019-01-28T13:20:44.220Z,3.04
2019-01-28T13:21:44.110Z,3.03
2019-01-28T13:22:45.213Z,3.03
2019-01-28T13:23:47.610Z,3.04
2019-01-28T13:24:44.054Z,3.03
2019-01-28T13:25:43.970Z,3.07
2019-01-28T13:26:44.131Z,3.06
2019-01-28T13:27:44.642Z,3.04
2019-01-28T13:28:44.329Z,3.03
2019-01-28T13:29:44.451Z,3.03
2019-01-28T13:30:44.416Z,3.06
2019-01-28T13:31:44.213Z,3.03